Ephrata, PA (17522)

4:08 AM EST on December 25, 2014 (GMT -0500)
Weather on the Hill / or not | Change Station
CLOSE
Current Station
Personal Weather Station
Location: Ephrata, PA
Elevation: 499 ft
Nearby Weather Stations

Elev 499 ft 40.17 °N, 76.18 °W | Updated 8 seconds ago

Rain
Rain
50.0 °F
Feels Like 46 °F
N
10.7
Wind Variable Wind from NNW
Gusts 16.8 mph

Today
High -- | Low -- °F
--% Chance of Precip.
Yesterday
High -- | Low -- °F
Precip. -- in
7:25 AM 4:44 PM
Waxing Crescent, 15% visible
Pressure 29.62 in
Visibility 10.0 miles
Clouds Mostly Cloudy 2700 ft
Mostly Cloudy 4200 ft
Overcast 7500 ft
Windchill 46 °F
Dew Point 50 °F
Humidity 100%
Rainfall 0.05 in
Snow Depth Not available.
UV 0 out of 12
Pollen .10 out of 12
Air Quality Not available.
Flu Activity Not available.
METAR KLNS 250853Z AUTO 29016KT 10SM -RA BKN027 BKN042 OVC075 10/07 A2962 RMK AO2 SLP031 P0001 60002 T01000072 51030

More Conditions Fewer Conditions

Pressure 29.62 in
Visibility 10.0 miles
Clouds Mostly Cloudy 2700 ft
Mostly Cloudy 4200 ft
Overcast 7500 ft
Windchill 46 °F
Dew Point 50 °F
Humidity 100%
Rainfall 0.05 in
Snow Depth Not available.
UV 0 out of 12
Pollen .10 out of 12
Air Quality Not available.
Flu Activity Not available.
METAR KLNS 250853Z AUTO 29016KT 10SM -RA BKN027 BKN042 OVC075 10/07 A2962 RMK AO2 SLP031 P0001 60002 T01000072 51030

More Conditions Fewer Conditions

Nowcast | as of 11:55 PM EST on December 24, 2014

Gusty winds and isolated showers will move across the Susquehanna valley through 230 am. Wind gust to 35 mph will be possible.

×

10-Day Weather Forecast

Almanac

Astronomy

Dec. 25, 2014 Rise Set
Actual Time
Civil Twilight
Nautical Twilight
Astronomical Twilight
Moon
Length of Visible Light
Length of Day
Tomorrow will be .
, % of the Moon is Illuminated

Today's Extremes

State Highs State Lows

Community

WunderPhotos

Upload Photos

1,780,250 photos uploaded!

WunderBlogs® & News

Nearby

Air Quality

  Air Quality AQ Index Pollutant
Not available.

Snow Depth

Station Depth Elevation

Earthquake Activity

City Distance Mag. Time & Date
Minimum magnitude displayed is 2.5.

Coastal Water Temperatures

Place Temperature

Nearby Weather Stations